Bamboo, North Carolina
Current Conditions -  °F | °C
As of 12:55 PM on Saturday 20 Dec 2014 (Local Time) from KTNB Reporting Station
Broken Clouds Broken Clouds  
Wind Chill: 39°   Ceiling: 2600
Heat Index: 39°   Visibility: 10mi
Dew Point: 31°   Wind: 0mph
Humidity: 73%   Direction: NA
Pressure: 30.13"   Gusts: NA
Location:  36.0473°N, 81.8148°W
Report Text: KTNB 201755Z AUTO 00000KT 10SM SCT016 BKN026 BKN030 04/M01 A3013 RMK AO2 T00391006 10042 20000
Loading
Personal Weather Stations






























Interactive Weather Map New forecast layout! Learn more

10-Day Weather Forecast

Advertisements
Track Severe Weather on mobile